createdAt,value
2022-10-05T00:02:29.801Z,1.83
2022-10-05T00:05:42.457Z,1.70
2022-10-05T00:08:51.811Z,1.55
2022-10-05T00:11:18.907Z,1.40
2022-10-05T00:13:47.155Z,1.60
2022-10-05T00:16:59.846Z,1.60
2022-10-05T00:23:23.113Z,1.27
2022-10-05T00:25:51.242Z,1.63
2022-10-05T00:28:30.553Z,1.33
2022-10-05T00:31:57.822Z,1.50
2022-10-05T00:34:24.979Z,1.60
2022-10-05T00:36:51.685Z,1.03
2022-10-05T00:39:18.816Z,1.67
2022-10-05T00:42:04.991Z,1.50
2022-10-05T00:45:09.376Z,1.47
2022-10-05T00:47:57.653Z,1.30
2022-10-05T00:50:41.957Z,1.97
2022-10-05T00:54:06.559Z,1.87
2022-10-05T00:57:06.757Z,1.10
2022-10-05T01:00:13.240Z,0.70
2022-10-05T01:03:05.620Z,0.80
2022-10-05T01:05:52.284Z,0.57
2022-10-05T01:08:27.382Z,1.10
2022-10-05T01:11:16.483Z,0.57
2022-10-05T01:14:07.819Z,0.40
2022-10-05T01:16:47.110Z,0.50
2022-10-05T01:19:32.396Z,0.40
2022-10-05T01:22:47.747Z,0.40
2022-10-05T01:26:00.035Z,0.40
2022-10-05T01:28:32.399Z,0.60
2022-10-05T01:35:30.807Z,0.40
2022-10-05T01:38:23.128Z,0.40
2022-10-05T01:40:59.432Z,1.05
2022-10-05T01:43:46.339Z,0.70
2022-10-05T01:46:21.924Z,0.60
2022-10-05T01:48:51.565Z,0.80
2022-10-05T01:51:41.037Z,0.63
2022-10-05T01:54:29.744Z,0.60
2022-10-05T01:57:17.549Z,0.60
2022-10-05T02:00:01.804Z,0.60
2022-10-05T02:02:31.415Z,0.80
2022-10-05T02:05:13.293Z,0.70
2022-10-05T02:07:51.279Z,0.50
2022-10-05T02:10:30.313Z,0.70
2022-10-05T02:13:18.953Z,0.70
2022-10-05T02:15:53.278Z,0.70
2022-10-05T02:18:23.354Z,0.60
2022-10-05T02:20:52.964Z,0.80
2022-10-05T02:23:24.368Z,0.90
2022-10-05T02:25:52.992Z,0.63
2022-10-05T02:28:25.497Z,0.87
2022-10-05T02:30:59.070Z,0.70
2022-10-05T02:33:31.722Z,0.93
2022-10-05T02:37:10.547Z,0.70
2022-10-05T02:44:03.597Z,0.67
2022-10-05T02:47:25.528Z,0.70
2022-10-05T02:50:41.173Z,0.60
2022-10-05T02:53:29.161Z,0.60
2022-10-05T02:55:56.039Z,0.80
2022-10-05T02:58:29.210Z,0.63
2022-10-05T03:01:10.611Z,0.53
2022-10-05T03:03:48.046Z,0.50
2022-10-05T03:06:24.003Z,0.73
2022-10-05T03:09:02.993Z,0.60
2022-10-05T03:12:59.899Z,0.70
2022-10-05T03:16:01.811Z,0.50
2022-10-05T03:19:06.255Z,0.50
2022-10-05T03:22:31.687Z,0.50
2022-10-05T03:25:39.983Z,0.60
2022-10-05T03:29:04.666Z,0.60
2022-10-05T03:32:00.385Z,0.30
2022-10-05T03:35:07.211Z,0.40
2022-10-05T03:37:47.958Z,0.40
2022-10-05T03:40:29.622Z,0.50
2022-10-05T03:43:41.276Z,0.37
2022-10-05T03:46:35.406Z,0.67
2022-10-05T03:49:15.100Z,0.40
2022-10-05T03:52:41.549Z,0.40
2022-10-05T03:56:05.362Z,0.37
2022-10-05T04:05:47.413Z,0.40
2022-10-05T04:10:45.522Z,0.50
2022-10-05T04:13:34.422Z,0.30
2022-10-05T04:16:13.362Z,0.40
2022-10-05T04:18:44.082Z,0.27
2022-10-05T04:21:23.952Z,0.33
2022-10-05T04:24:53.742Z,0.30
2022-10-05T04:28:20.233Z,0.30
2022-10-05T04:35:39.629Z,0.30
2022-10-05T04:38:51.985Z,0.67
2022-10-05T04:42:01.625Z,0.30
2022-10-05T04:45:04.685Z,0.40
2022-10-05T04:47:53.192Z,0.50
2022-10-05T04:50:52.903Z,0.40
2022-10-05T04:53:28.149Z,0.33
2022-10-05T04:56:14.467Z,0.37
2022-10-05T04:58:53.135Z,0.20
2022-10-05T05:02:20.660Z,0.30
2022-10-05T05:09:01.191Z,0.20
2022-10-05T05:12:29.372Z,0.30
2022-10-05T05:16:11.063Z,0.50
2022-10-05T05:19:16.071Z,0.50
2022-10-05T05:22:08.916Z,0.60
2022-10-05T05:25:28.865Z,0.50
2022-10-05T05:29:10.372Z,0.50
2022-10-05T05:32:31.878Z,0.30
2022-10-05T05:35:24.412Z,0.60
2022-10-05T05:39:08.278Z,0.40
2022-10-05T05:42:18.013Z,0.40
2022-10-05T05:44:56.343Z,0.50
2022-10-05T05:47:35.517Z,0.60
2022-10-05T05:50:07.268Z,0.50
2022-10-05T05:52:46.461Z,0.73
2022-10-05T05:55:30.124Z,0.40
2022-10-05T05:58:26.455Z,0.50
2022-10-05T06:01:01.362Z,0.60
2022-10-05T06:04:30.643Z,0.63
2022-10-05T06:07:01.220Z,0.50
2022-10-05T06:09:35.990Z,0.50
2022-10-05T06:12:19.260Z,0.70
2022-10-05T06:15:04.995Z,0.50
2022-10-05T06:17:45.563Z,0.50
2022-10-05T06:20:55.396Z,0.37
2022-10-05T06:24:20.827Z,0.50
2022-10-05T06:27:26.178Z,0.40
2022-10-05T06:31:04.920Z,0.60
2022-10-05T06:34:52.414Z,0.57
2022-10-05T06:44:14.377Z,0.50
2022-10-05T06:47:41.001Z,0.63
2022-10-05T06:51:07.440Z,0.80
2022-10-05T06:54:01.210Z,0.70
2022-10-05T06:57:13.455Z,0.60
2022-10-05T07:00:25.990Z,0.80
2022-10-05T07:03:59.782Z,0.70
2022-10-05T07:06:29.886Z,0.68
2022-10-05T07:09:02.256Z,0.50
2022-10-05T07:11:57.259Z,0.50
2022-10-05T07:15:03.225Z,1.13
2022-10-05T07:17:48.799Z,0.70
2022-10-05T07:20:22.646Z,0.53
2022-10-05T07:23:20.045Z,0.80
2022-10-05T07:25:55.640Z,0.60
2022-10-05T07:28:33.639Z,0.70
2022-10-05T07:31:25.105Z,0.50
2022-10-05T07:34:21.067Z,0.90
2022-10-05T07:37:20.096Z,0.50
2022-10-05T07:40:28.551Z,0.70
2022-10-05T07:42:58.022Z,0.80
2022-10-05T07:45:57.514Z,0.80
2022-10-05T07:48:53.645Z,1.30
2022-10-05T07:51:23.244Z,1.00
2022-10-05T07:54:06.442Z,0.70
2022-10-05T07:56:44.256Z,0.80
2022-10-05T07:59:19.407Z,1.13
2022-10-05T08:01:53.027Z,1.20
2022-10-05T08:04:26.579Z,0.63
2022-10-05T08:07:06.943Z,0.90
2022-10-05T08:09:51.390Z,0.50
2022-10-05T08:12:29.233Z,0.50
2022-10-05T08:15:16.688Z,0.50
2022-10-05T08:17:55.128Z,0.60
2022-10-05T08:20:40.622Z,0.70
2022-10-05T08:23:24.063Z,0.60
2022-10-05T08:26:02.762Z,0.70
2022-10-05T08:28:47.402Z,0.60
2022-10-05T08:31:23.122Z,0.53
2022-10-05T08:34:21.351Z,0.60
2022-10-05T08:37:15.951Z,0.57
2022-10-05T08:39:55.825Z,0.77
2022-10-05T08:42:56.286Z,0.60
2022-10-05T08:45:42.262Z,0.67
2022-10-05T08:48:31.127Z,0.50
2022-10-05T08:51:13.491Z,0.60
2022-10-05T08:53:58.320Z,0.50
2022-10-05T08:56:49.922Z,0.60
2022-10-05T08:59:25.502Z,0.50
2022-10-05T09:02:18.710Z,0.67
2022-10-05T09:10:28.795Z,1.17
2022-10-05T09:13:17.523Z,0.50
2022-10-05T09:16:08.880Z,0.90
2022-10-05T09:18:44.882Z,0.70
2022-10-05T09:22:02.575Z,0.62
2022-10-05T09:24:57.456Z,0.60
2022-10-05T09:27:34.309Z,0.70
2022-10-05T09:30:06.651Z,0.90
2022-10-05T09:33:01.025Z,0.43
2022-10-05T09:36:05.302Z,0.70
2022-10-05T09:38:53.201Z,0.93
2022-10-05T09:42:02.280Z,0.50
2022-10-05T09:45:07.579Z,0.53
2022-10-05T09:48:05.000Z,0.57
2022-10-05T09:50:44.456Z,0.70
2022-10-05T09:53:29.709Z,0.60
2022-10-05T09:56:22.742Z,1.00
2022-10-05T09:59:08.229Z,0.50
2022-10-05T10:01:48.091Z,0.90
2022-10-05T10:04:34.118Z,1.00
2022-10-05T10:07:39.382Z,0.57
2022-10-05T10:10:29.710Z,0.50
2022-10-05T10:13:17.145Z,0.50
2022-10-05T10:16:02.512Z,0.47
2022-10-05T10:18:41.396Z,0.57
2022-10-05T10:21:33.300Z,0.80
2022-10-05T10:24:14.150Z,1.00
2022-10-05T10:27:18.392Z,0.50
2022-10-05T10:30:06.848Z,0.60
2022-10-05T10:33:11.960Z,0.60
2022-10-05T10:35:42.776Z,0.70
2022-10-05T10:38:28.812Z,0.70
2022-10-05T10:41:01.636Z,0.70
2022-10-05T10:43:57.262Z,0.90
2022-10-05T10:47:21.282Z,0.40
2022-10-05T10:50:47.078Z,0.80
2022-10-05T10:54:11.646Z,0.60
2022-10-05T10:57:27.233Z,0.70
2022-10-05T11:00:37.027Z,0.60
2022-10-05T11:08:00.861Z,0.67
2022-10-05T11:11:05.592Z,0.57
2022-10-05T11:14:29.920Z,0.87
2022-10-05T11:17:55.082Z,0.87
2022-10-05T11:21:16.838Z,0.70
2022-10-05T11:24:32.020Z,0.90
2022-10-05T11:27:41.197Z,0.83
2022-10-05T11:30:53.837Z,0.80
2022-10-05T11:34:54.132Z,0.50
2022-10-05T11:37:43.830Z,0.73
2022-10-05T11:40:33.232Z,0.50
2022-10-05T11:43:44.354Z,0.70
2022-10-05T11:46:50.953Z,0.60
2022-10-05T11:50:19.332Z,0.73
2022-10-05T11:54:09.802Z,0.87
2022-10-05T11:57:39.216Z,1.10
2022-10-05T12:01:11.830Z,0.70
2022-10-05T12:27:25.689Z,0.50
2022-10-05T12:30:12.564Z,0.60
2022-10-05T12:33:02.160Z,0.70
2022-10-05T12:35:54.682Z,0.50
2022-10-05T12:39:39.707Z,0.40
2022-10-05T12:42:31.986Z,1.03
2022-10-05T12:45:49.422Z,0.90
2022-10-05T12:48:25.144Z,0.90
2022-10-05T12:55:03.648Z,0.50
2022-10-05T12:58:21.977Z,0.50
2022-10-05T13:02:18.895Z,0.30
2022-10-05T13:05:11.210Z,0.40
2022-10-05T13:07:46.993Z,0.50
2022-10-05T13:10:28.190Z,0.70
2022-10-05T13:13:19.627Z,1.30
2022-10-05T13:16:37.754Z,0.60
2022-10-05T13:20:16.461Z,0.67
2022-10-05T13:22:51.048Z,0.67
2022-10-05T13:25:29.056Z,0.70
2022-10-05T13:28:01.633Z,0.63
2022-10-05T13:30:28.908Z,0.57
2022-10-05T13:33:07.175Z,0.50
2022-10-05T13:35:48.581Z,0.60
2022-10-05T13:38:35.022Z,0.60
2022-10-05T13:41:18.331Z,0.67
2022-10-05T13:44:05.938Z,1.30
2022-10-05T13:46:49.148Z,1.20
2022-10-05T13:50:22.157Z,1.13
2022-10-05T13:53:46.506Z,2.43
2022-10-05T13:57:15.769Z,2.17
2022-10-05T14:00:42.212Z,1.70
2022-10-05T14:08:10.712Z,2.10
2022-10-05T14:11:40.038Z,2.13
2022-10-05T14:14:29.720Z,2.10
2022-10-05T14:20:56.985Z,1.90
2022-10-05T14:23:27.269Z,2.05
2022-10-05T14:25:54.518Z,1.92
2022-10-05T14:28:30.947Z,2.33
2022-10-05T14:31:15.102Z,1.73
2022-10-05T14:33:42.544Z,1.77
2022-10-05T14:37:14.872Z,1.13
2022-10-05T14:40:41.639Z,0.90
2022-10-05T14:43:34.535Z,1.60
2022-10-05T14:46:28.596Z,2.78
2022-10-05T14:49:21.673Z,1.97
2022-10-05T14:51:50.482Z,3.63
2022-10-05T14:54:34.030Z,3.53
2022-10-05T14:57:45.773Z,1.30
2022-10-05T15:00:17.747Z,1.90
2022-10-05T15:02:51.712Z,5.60
2022-10-05T15:05:43.745Z,4.93
2022-10-05T15:08:34.263Z,7.47
2022-10-05T15:11:07.702Z,10.37
2022-10-05T15:13:41.784Z,9.57
2022-10-05T15:17:14.390Z,15.37
2022-10-05T15:20:10.805Z,15.20
2022-10-05T15:23:46.062Z,11.90
2022-10-05T15:26:32.826Z,4.20
2022-10-05T15:29:57.855Z,3.23
2022-10-05T15:33:25.991Z,12.90
2022-10-05T15:36:17.366Z,12.73
2022-10-05T15:39:33.742Z,11.30
2022-10-05T15:42:26.760Z,3.47
2022-10-05T15:48:56.494Z,1.30
2022-10-05T15:52:05.877Z,1.20
2022-10-05T15:55:51.049Z,0.90
2022-10-05T15:58:53.127Z,1.10
2022-10-05T16:05:59.325Z,1.10
2022-10-05T16:09:20.867Z,0.93
2022-10-05T16:12:10.741Z,0.80
2022-10-05T16:15:35.189Z,0.93
2022-10-05T16:18:43.709Z,1.37
2022-10-05T16:21:29.671Z,1.03
2022-10-05T16:28:29.110Z,1.43
2022-10-05T16:31:24.886Z,1.27
2022-10-05T16:34:31.528Z,0.90
2022-10-05T16:37:36.310Z,1.63
2022-10-05T16:40:49.022Z,1.27
2022-10-05T16:43:59.920Z,0.93
2022-10-05T16:47:12.753Z,1.00
2022-10-05T16:50:19.242Z,1.02
2022-10-05T16:59:10.442Z,1.10
2022-10-05T17:01:43.815Z,1.30
2022-10-05T17:04:45.882Z,1.47
2022-10-05T17:07:55.518Z,1.20
2022-10-05T17:11:40.140Z,1.20
2022-10-05T17:14:45.463Z,1.60
2022-10-05T17:18:00.087Z,1.40
2022-10-05T17:20:56.982Z,1.40
2022-10-05T17:24:25.164Z,1.00
2022-10-05T17:26:57.384Z,1.47
2022-10-05T17:30:12.912Z,1.42
2022-10-05T17:33:42.481Z,1.27
2022-10-05T17:36:29.210Z,1.27
2022-10-05T17:39:14.785Z,1.00
2022-10-05T17:45:29.929Z,1.00
2022-10-05T17:47:56.557Z,1.13
2022-10-05T17:50:58.786Z,1.10
2022-10-05T17:53:57.125Z,1.40
2022-10-05T17:56:24.016Z,2.30
2022-10-05T17:59:10.630Z,1.20
2022-10-05T18:02:49.086Z,1.87
2022-10-05T18:09:37.903Z,1.25
2022-10-05T18:12:41.252Z,1.30
2022-10-05T18:15:07.927Z,1.00
2022-10-05T18:18:00.132Z,1.30
2022-10-05T18:20:27.151Z,1.93
2022-10-05T18:23:39.496Z,1.53
2022-10-05T18:30:46.904Z,1.30
2022-10-05T18:33:33.125Z,1.30
2022-10-05T18:36:19.922Z,1.10
2022-10-05T18:39:07.915Z,1.50
2022-10-05T18:42:32.417Z,2.10
2022-10-05T18:46:04.537Z,1.23
2022-10-05T18:49:11.374Z,1.50
2022-10-05T18:52:16.255Z,1.27
2022-10-05T18:55:24.986Z,1.50
2022-10-05T18:58:57.372Z,1.40
2022-10-05T19:05:48.336Z,1.83
2022-10-05T19:08:57.523Z,1.30
2022-10-05T19:12:02.468Z,1.57
2022-10-05T19:14:51.529Z,2.00
2022-10-05T19:17:40.378Z,1.90
2022-10-05T19:20:47.064Z,1.40
2022-10-05T19:23:48.778Z,1.80
2022-10-05T19:30:20.142Z,1.60
2022-10-05T19:33:01.342Z,1.50
2022-10-05T19:35:45.662Z,2.30
2022-10-05T19:38:36.661Z,6.67
2022-10-05T19:41:45.007Z,7.03
2022-10-05T19:44:30.533Z,2.87
2022-10-05T19:47:45.838Z,2.43
2022-10-05T19:51:18.368Z,2.43
2022-10-05T19:53:47.429Z,3.90
2022-10-05T19:56:23.526Z,2.10
2022-10-05T19:59:53.063Z,2.87
2022-10-05T20:02:26.350Z,2.97
2022-10-05T20:04:55.187Z,2.47
2022-10-05T20:07:22.995Z,2.83
2022-10-05T20:09:57.132Z,2.10
2022-10-05T20:13:13.345Z,1.63
2022-10-05T20:16:47.922Z,2.70
2022-10-05T20:19:52.487Z,1.70
2022-10-05T20:27:28.235Z,2.15
2022-10-05T20:30:54.748Z,1.80
2022-10-05T20:37:05.823Z,6.82
2022-10-05T20:39:32.683Z,4.83
2022-10-05T20:41:59.664Z,3.17
2022-10-05T20:44:27.544Z,3.10
2022-10-05T20:46:58.294Z,2.80
2022-10-05T20:49:26.529Z,2.70
2022-10-05T20:51:56.062Z,2.30
2022-10-05T20:54:24.242Z,2.30
2022-10-05T20:56:53.275Z,1.87
2022-10-05T20:59:20.182Z,1.77
2022-10-05T21:02:46.665Z,2.30
2022-10-05T21:05:57.995Z,2.50
2022-10-05T21:12:07.446Z,1.87
2022-10-05T21:14:54.326Z,1.93
2022-10-05T21:18:20.969Z,2.20
2022-10-05T21:21:48.887Z,2.43
2022-10-05T21:25:15.567Z,2.10
2022-10-05T21:27:42.191Z,2.50
2022-10-05T21:30:09.922Z,1.70
2022-10-05T21:33:36.733Z,1.20
2022-10-05T21:37:03.337Z,1.53
2022-10-05T21:39:30.342Z,1.33
2022-10-05T21:45:56.209Z,1.40
2022-10-05T21:48:23.578Z,1.67
2022-10-05T21:50:50.283Z,1.30
2022-10-05T21:54:06.943Z,1.90
2022-10-05T21:56:36.431Z,1.03
2022-10-05T21:59:06.505Z,1.30
2022-10-05T22:01:36.090Z,1.70
2022-10-05T22:05:01.768Z,1.70
2022-10-05T22:07:29.193Z,2.73
2022-10-05T22:10:55.665Z,1.53
2022-10-05T22:14:24.890Z,2.13
2022-10-05T22:16:52.970Z,1.57
2022-10-05T22:20:19.593Z,1.43
2022-10-05T22:23:46.100Z,1.97
2022-10-05T22:27:12.672Z,1.67
2022-10-05T22:34:31.607Z,1.30
2022-10-05T22:37:58.131Z,0.97
2022-10-05T22:45:07.699Z,1.43
2022-10-05T22:48:34.129Z,3.10
2022-10-05T22:52:00.827Z,1.20
2022-10-05T22:55:27.239Z,1.50
2022-10-05T22:57:57.990Z,1.53
2022-10-05T23:05:19.265Z,1.90
2022-10-05T23:08:45.708Z,1.73
2022-10-05T23:12:12.382Z,2.00
2022-10-05T23:15:38.837Z,1.47
2022-10-05T23:22:58.810Z,1.57
2022-10-05T23:26:25.324Z,1.43
2022-10-05T23:32:47.221Z,1.27
2022-10-05T23:36:13.751Z,1.70
2022-10-05T23:39:40.543Z,1.70
2022-10-05T23:42:31.079Z,2.00
2022-10-05T23:49:18.634Z,1.60
2022-10-05T23:55:54.629Z,1.70
2022-10-05T23:58:22.671Z,1.87
